Dover, Delaware
Current Conditions -  °F | °C
As of 9:58 AM on Saturday 20 Dec 2014 (Local Time) from KDOV Reporting Station
Clear Clear  
Wind Chill: -2°   Ceiling: Unl
Heat Index:   Visibility: 10mi
Dew Point: -3°   Wind: 8mph
Humidity: 74%   Direction: 360°N
Pressure: 30.29"   Gusts: NA
Location:  39.16°N, 75.52°W
Report Text: KDOV 201458Z AUTO 36007KT 10SM CLR 02/M03 A3029 RMK AO2 SLP261 T00151027 51011
Loading
Personal Weather Stations






























Interactive Weather Map New forecast layout! Learn more

10-Day Weather Forecast

Advertisements
Track Severe Weather on mobile